createdAt,value
2023-04-09T00:00:30.885Z,19.2249
2023-04-09T00:01:32.527Z,19.2076
2023-04-09T00:02:34.134Z,19.1729
2023-04-09T00:03:35.975Z,19.1643
2023-04-09T00:04:37.512Z,19.1345
2023-04-09T00:05:39.045Z,19.1507
2023-04-09T00:06:40.729Z,19.1783
2023-04-09T00:07:44.498Z,19.1982
2023-04-09T00:08:44.001Z,19.2048
2023-04-09T00:09:45.795Z,19.1604
2023-04-09T00:10:47.419Z,19.1440
2023-04-09T00:11:49.014Z,19.1333
2023-04-09T00:12:50.658Z,19.1242
2023-04-09T00:13:52.355Z,19.1429
2023-04-09T00:14:53.949Z,19.1686
2023-04-09T00:15:55.639Z,19.1602
2023-04-09T00:16:57.327Z,19.1668
2023-04-09T00:17:58.941Z,19.1551
2023-04-09T00:19:00.566Z,19.1594
2023-04-09T00:20:02.230Z,19.1497
2023-04-09T00:21:03.874Z,19.1415
2023-04-09T00:22:05.538Z,19.1275
2023-04-09T00:23:07.217Z,19.1331
2023-04-09T00:24:08.741Z,19.1058
2023-04-09T00:25:10.451Z,19.1263
2023-04-09T00:26:12.178Z,19.1275
2023-04-09T00:27:13.870Z,19.1210
2023-04-09T00:28:15.471Z,19.1284
2023-04-09T00:29:17.208Z,19.1201
2023-04-09T00:30:18.800Z,19.1189
2023-04-09T00:31:20.877Z,19.1259
2023-04-09T00:32:22.075Z,19.1308
2023-04-09T00:33:23.652Z,19.1312
2023-04-09T00:34:25.336Z,19.1489
2023-04-09T00:35:26.974Z,19.1477
2023-04-09T00:36:28.728Z,19.1510
2023-04-09T00:37:30.315Z,19.1594
2023-04-09T00:38:31.999Z,19.1444
2023-04-09T00:39:33.621Z,19.1477
2023-04-09T00:40:35.255Z,19.1310
2023-04-09T00:41:37.009Z,19.1210
2023-04-09T00:42:38.590Z,19.1199
2023-04-09T00:43:40.274Z,19.1321
2023-04-09T00:44:41.810Z,19.1242
2023-04-09T00:45:43.536Z,19.1333
2023-04-09T00:46:45.106Z,19.1497
2023-04-09T00:47:47.383Z,19.1442
2023-04-09T00:48:48.510Z,19.1454
2023-04-09T00:49:50.179Z,19.1464
2023-04-09T00:50:51.748Z,19.1553
2023-04-09T00:51:53.387Z,19.1378
2023-04-09T00:52:55.154Z,19.1321
2023-04-09T00:53:56.788Z,19.1220
2023-04-09T00:54:58.439Z,19.1144
2023-04-09T00:56:00.031Z,19.1047
2023-04-09T00:57:01.678Z,19.1123
2023-04-09T00:58:03.432Z,19.1156
2023-04-09T00:59:05.370Z,19.0959
2023-04-09T01:00:06.718Z,19.0830
2023-04-09T01:01:08.398Z,19.0860
2023-04-09T01:02:10.922Z,19.0957
2023-04-09T01:03:12.029Z,19.0678
2023-04-09T01:04:13.346Z,19.0657
2023-04-09T01:05:14.928Z,19.0565
2023-04-09T01:06:16.538Z,19.0649
2023-04-09T01:07:18.281Z,19.0936
2023-04-09T01:08:20.103Z,19.1093
2023-04-09T01:09:21.565Z,19.0733
2023-04-09T01:10:23.206Z,19.0228
2023-04-09T01:11:24.982Z,19.0076
2023-04-09T01:12:26.511Z,19.0014
2023-04-09T01:13:28.223Z,19.0308
2023-04-09T01:14:29.940Z,19.0690
2023-04-09T01:15:31.524Z,19.0815
2023-04-09T01:16:33.136Z,19.0497
2023-04-09T01:17:34.892Z,19.0076
2023-04-09T01:18:36.505Z,18.9959
2023-04-09T01:19:38.124Z,18.9823
2023-04-09T01:20:39.828Z,19.0234
2023-04-09T01:21:41.423Z,19.0626
2023-04-09T01:22:43.078Z,19.0597
2023-04-09T01:23:44.791Z,19.0199
2023-04-09T01:24:46.398Z,19.0308
2023-04-09T01:25:48.068Z,18.9942
2023-04-09T01:26:49.701Z,19.0347
2023-04-09T01:27:51.345Z,19.0774
2023-04-09T01:28:53.459Z,19.0873
2023-04-09T01:29:54.675Z,19.0739
2023-04-09T01:30:56.455Z,19.0507
2023-04-09T01:31:57.966Z,19.0322
2023-04-09T01:33:00.036Z,19.0203
2023-04-09T01:34:01.414Z,19.0579
2023-04-09T01:35:02.905Z,19.0893
2023-04-09T01:36:04.719Z,19.0891
2023-04-09T01:37:06.294Z,19.0637
2023-04-09T01:38:07.898Z,19.0583
2023-04-09T01:39:09.611Z,19.0324
2023-04-09T01:40:11.340Z,19.0324
2023-04-09T01:41:12.763Z,19.0710
2023-04-09T01:42:14.450Z,19.0770
2023-04-09T01:43:16.089Z,19.0421
2023-04-09T01:44:17.733Z,19.0160
2023-04-09T01:45:19.460Z,19.0045
2023-04-09T01:46:21.134Z,19.0033
2023-04-09T01:47:22.701Z,19.0499
2023-04-09T01:48:24.355Z,19.0678
2023-04-09T01:49:26.155Z,19.0614
2023-04-09T01:50:27.827Z,19.0345
2023-04-09T01:51:29.362Z,19.0244
2023-04-09T01:52:31.778Z,19.0107
2023-04-09T01:53:32.756Z,19.0386
2023-04-09T01:54:34.509Z,19.0710
2023-04-09T01:55:36.046Z,19.0879
2023-04-09T01:56:37.760Z,19.0752
2023-04-09T01:57:39.326Z,19.0201
2023-04-09T01:58:41.040Z,19.0205
2023-04-09T01:59:42.646Z,19.0055
2023-04-09T02:00:45.286Z,19.0441
2023-04-09T02:01:46.966Z,19.0710
2023-04-09T02:02:47.749Z,19.0813
2023-04-09T02:03:49.389Z,19.0452
2023-04-09T02:04:51.165Z,19.0454
2023-04-09T02:05:52.939Z,19.0224
2023-04-09T02:06:54.257Z,19.0326
2023-04-09T02:07:55.895Z,19.0616
2023-04-09T02:08:57.613Z,19.0838
2023-04-09T02:09:59.283Z,19.0051
2023-04-09T02:11:00.840Z,18.9837
2023-04-09T02:12:02.542Z,18.9683
2023-04-09T02:13:04.157Z,18.9764
2023-04-09T02:14:05.990Z,19.0257
2023-04-09T02:15:07.595Z,19.0680
2023-04-09T02:16:09.178Z,19.0723
2023-04-09T02:17:10.796Z,19.0029
2023-04-09T02:18:12.451Z,18.9981
2023-04-09T02:19:14.076Z,18.9835
2023-04-09T02:20:15.820Z,18.9977
2023-04-09T02:21:17.353Z,19.0493
2023-04-09T02:22:19.019Z,19.0826
2023-04-09T02:23:20.728Z,19.0667
2023-04-09T02:24:22.447Z,19.0421
2023-04-09T02:25:24.078Z,19.0252
2023-04-09T02:26:25.642Z,19.0191
2023-04-09T02:27:27.406Z,19.0519
2023-04-09T02:28:29.049Z,19.0729
2023-04-09T02:29:30.649Z,19.0971
2023-04-09T02:30:32.343Z,19.0733
2023-04-09T02:31:34.023Z,19.0398
2023-04-09T02:32:35.744Z,19.0234
2023-04-09T02:33:37.353Z,19.0466
2023-04-09T02:34:39.059Z,19.0780
2023-04-09T02:35:40.670Z,19.0936
2023-04-09T02:36:42.334Z,19.0895
2023-04-09T02:37:44.014Z,19.0478
2023-04-09T02:38:45.604Z,19.0185
2023-04-09T02:39:47.406Z,19.0158
2023-04-09T02:40:48.948Z,19.0107
2023-04-09T02:41:50.642Z,19.0528
2023-04-09T02:42:52.172Z,19.0774
2023-04-09T02:43:53.910Z,19.0519
2023-04-09T02:44:55.577Z,18.9998
2023-04-09T02:45:57.459Z,18.9987
2023-04-09T02:46:58.780Z,19.0024
2023-04-09T02:48:00.501Z,19.0269
2023-04-09T02:49:02.858Z,19.0729
2023-04-09T02:50:03.897Z,19.0805
2023-04-09T02:51:05.597Z,19.0591
2023-04-09T02:52:07.114Z,19.0285
2023-04-09T02:53:08.894Z,19.0289
2023-04-09T02:54:10.412Z,19.0634
2023-04-09T02:55:12.069Z,19.2233
2023-04-09T02:56:13.815Z,19.3960
2023-04-09T02:57:15.261Z,19.6534
2023-04-09T02:58:16.992Z,19.8873
2023-04-09T02:59:18.727Z,20.0038
2023-04-09T03:00:20.348Z,20.0730
2023-04-09T03:01:22.135Z,20.0808
2023-04-09T03:02:23.818Z,20.0864
2023-04-09T03:03:26.040Z,20.1219
2023-04-09T03:04:26.980Z,20.1151
2023-04-09T03:05:28.520Z,20.1396
2023-04-09T03:06:30.294Z,20.1492
2023-04-09T03:07:31.856Z,20.1653
2023-04-09T03:08:33.504Z,20.1969
2023-04-09T03:09:35.157Z,20.2195
2023-04-09T03:10:36.820Z,20.2294
2023-04-09T03:11:38.536Z,20.2458
2023-04-09T03:12:40.128Z,20.2517
2023-04-09T03:13:41.820Z,20.2764
2023-04-09T03:14:43.483Z,20.2885
2023-04-09T03:15:45.125Z,20.3019
2023-04-09T03:16:46.781Z,20.3339
2023-04-09T03:17:48.433Z,20.3581
2023-04-09T03:18:50.256Z,20.3699
2023-04-09T03:19:51.686Z,20.3744
2023-04-09T03:20:53.341Z,20.4007
2023-04-09T03:21:55.031Z,20.4109
2023-04-09T03:22:56.638Z,20.4027
2023-04-09T03:23:58.321Z,20.4286
2023-04-09T03:24:59.983Z,20.4611
2023-04-09T03:26:01.616Z,20.4795
2023-04-09T03:27:03.362Z,20.4960
2023-04-09T03:28:04.876Z,20.5110
2023-04-09T03:29:06.616Z,20.5192
2023-04-09T03:30:08.235Z,20.5003
2023-04-09T03:31:09.964Z,20.5005
2023-04-09T03:32:11.545Z,20.5141
2023-04-09T03:33:13.187Z,20.5303
2023-04-09T03:34:14.836Z,20.5545
2023-04-09T03:35:16.464Z,20.5638
2023-04-09T03:36:18.091Z,20.5488
2023-04-09T03:37:19.818Z,20.5722
2023-04-09T03:38:21.408Z,20.5775
2023-04-09T03:39:23.121Z,20.5749
2023-04-09T03:40:24.740Z,20.6065
2023-04-09T03:41:26.469Z,20.6235
2023-04-09T03:42:27.998Z,20.6248
2023-04-09T03:43:29.703Z,20.6295
2023-04-09T03:44:31.954Z,20.6527
2023-04-09T03:45:33.017Z,20.6601
2023-04-09T03:46:34.750Z,20.6539
2023-04-09T03:47:36.354Z,20.6693
2023-04-09T03:48:38.009Z,20.6825
2023-04-09T03:49:39.614Z,20.6767
2023-04-09T03:50:41.252Z,20.6685
2023-04-09T03:51:42.937Z,20.6580
2023-04-09T03:52:44.651Z,20.6611
2023-04-09T03:53:46.335Z,20.6854
2023-04-09T03:54:47.962Z,20.6833
2023-04-09T03:55:49.626Z,20.6843
2023-04-09T03:56:52.068Z,20.6769
2023-04-09T03:57:52.934Z,20.6891
2023-04-09T03:58:54.881Z,20.7082
2023-04-09T03:59:56.248Z,20.7336
2023-04-09T04:00:57.769Z,20.7324
2023-04-09T04:01:59.549Z,20.7529
2023-04-09T04:03:01.372Z,20.7684
2023-04-09T04:04:02.941Z,20.7681
2023-04-09T04:05:04.493Z,20.7868
2023-04-09T04:06:06.160Z,20.7877
2023-04-09T04:07:07.804Z,20.7753
2023-04-09T04:08:09.423Z,20.7723
2023-04-09T04:09:11.023Z,20.7755
2023-04-09T04:10:12.794Z,20.7998
2023-04-09T04:11:14.374Z,20.7899
2023-04-09T04:12:16.020Z,20.7988
2023-04-09T04:13:17.707Z,20.8010
2023-04-09T04:14:19.355Z,20.8232
2023-04-09T04:15:21.044Z,20.8386
2023-04-09T04:16:22.697Z,20.8645
2023-04-09T04:17:24.341Z,20.8370
2023-04-09T04:18:25.957Z,20.8061
2023-04-09T04:19:27.614Z,20.8181
2023-04-09T04:20:29.244Z,20.8294
2023-04-09T04:21:30.919Z,20.8265
2023-04-09T04:22:32.602Z,20.8105
2023-04-09T04:23:34.250Z,20.8437
2023-04-09T04:24:35.901Z,20.8604
2023-04-09T04:25:37.541Z,20.8649
2023-04-09T04:26:39.229Z,20.8887
2023-04-09T04:27:40.893Z,20.9084
2023-04-09T04:28:42.556Z,20.9138
2023-04-09T04:29:44.141Z,20.9230
2023-04-09T04:30:45.867Z,20.9261
2023-04-09T04:31:47.497Z,20.9349
2023-04-09T04:32:49.097Z,20.9179
2023-04-09T04:33:50.782Z,20.9041
2023-04-09T04:34:52.425Z,20.9138
2023-04-09T04:35:54.144Z,20.9148
2023-04-09T04:36:55.633Z,20.9074
2023-04-09T04:37:57.399Z,20.9503
2023-04-09T04:38:59.067Z,20.9483
2023-04-09T04:40:00.666Z,20.9390
2023-04-09T04:41:02.306Z,20.9425
2023-04-09T04:42:03.947Z,20.9222
2023-04-09T04:43:05.665Z,20.9479
2023-04-09T04:44:07.311Z,20.9635
2023-04-09T04:45:09.052Z,20.9635
2023-04-09T04:46:10.622Z,20.9604
2023-04-09T04:47:12.244Z,20.9370
2023-04-09T04:48:13.917Z,20.9306
2023-04-09T04:49:16.324Z,20.9282
2023-04-09T04:50:17.256Z,20.9380
2023-04-09T04:51:18.841Z,20.9271
2023-04-09T04:52:20.475Z,20.9148
2023-04-09T04:53:22.139Z,20.8787
2023-04-09T04:54:23.842Z,20.8429
2023-04-09T04:55:26.505Z,20.8581
2023-04-09T04:56:27.114Z,20.8787
2023-04-09T04:57:28.939Z,20.8865
2023-04-09T04:58:30.423Z,20.8875
2023-04-09T04:59:32.200Z,20.8897
2023-04-09T05:00:33.734Z,20.9041
2023-04-09T05:01:35.418Z,20.9105
2023-04-09T05:02:37.186Z,20.9054
2023-04-09T05:03:38.779Z,20.9105
2023-04-09T05:04:40.392Z,20.8819
2023-04-09T05:05:42.002Z,20.8809
2023-04-09T05:06:43.662Z,20.8721
2023-04-09T05:07:45.306Z,20.8505
2023-04-09T05:08:47.009Z,20.8517
2023-04-09T05:09:48.626Z,20.8394
2023-04-09T05:10:50.220Z,20.8273
2023-04-09T05:11:51.930Z,20.8255
2023-04-09T05:12:53.611Z,20.8357
2023-04-09T05:13:55.186Z,20.8316
2023-04-09T05:14:56.986Z,20.8351
2023-04-09T05:15:58.630Z,20.8372
2023-04-09T05:17:00.216Z,20.8415
2023-04-09T05:18:01.925Z,20.8454
2023-04-09T05:19:03.528Z,20.8526
2023-04-09T05:20:05.949Z,20.8583
2023-04-09T05:21:07.457Z,20.8659
2023-04-09T05:22:08.464Z,20.8795
2023-04-09T05:23:10.082Z,20.8885
2023-04-09T05:24:11.737Z,20.9023
2023-04-09T05:25:13.410Z,20.9146
2023-04-09T05:26:14.995Z,20.9261
2023-04-09T05:27:16.722Z,20.9261
2023-04-09T05:28:18.434Z,20.8900
2023-04-09T05:29:20.058Z,20.8988
2023-04-09T05:30:21.724Z,20.9008
2023-04-09T05:31:23.257Z,20.9082
2023-04-09T05:32:25.221Z,20.9232
2023-04-09T05:33:26.679Z,20.9360
2023-04-09T05:34:28.265Z,20.9555
2023-04-09T05:35:29.983Z,20.9699
2023-04-09T05:36:31.577Z,20.9762
2023-04-09T05:37:33.499Z,20.9875
2023-04-09T05:38:34.965Z,20.9976
2023-04-09T05:39:37.502Z,21.0052
2023-04-09T05:40:38.298Z,20.9803
2023-04-09T05:41:39.857Z,20.9565
2023-04-09T05:42:41.537Z,20.9425
2023-04-09T05:43:43.439Z,20.9103
2023-04-09T05:44:44.857Z,20.9284
2023-04-09T05:45:46.718Z,20.9610
2023-04-09T05:46:48.189Z,21.0358
2023-04-09T05:47:49.824Z,21.0800
2023-04-09T05:48:51.595Z,21.1007
2023-04-09T05:49:53.246Z,21.0685
2023-04-09T05:50:55.841Z,21.0403
2023-04-09T05:51:56.517Z,21.1212
2023-04-09T05:52:58.191Z,21.1940
2023-04-09T05:53:59.858Z,21.2583
2023-04-09T05:55:01.492Z,21.2761
2023-04-09T05:56:03.126Z,21.2461
2023-04-09T05:57:04.811Z,21.2504
2023-04-09T05:58:06.499Z,21.2583
2023-04-09T05:59:07.995Z,21.3166
2023-04-09T06:00:10.102Z,21.3692
2023-04-09T06:01:11.356Z,21.3618
2023-04-09T06:02:13.004Z,21.3244
2023-04-09T06:03:14.777Z,21.3460
2023-04-09T06:04:16.406Z,21.3737
2023-04-09T06:05:18.581Z,21.4209
2023-04-09T06:06:19.632Z,21.4824
2023-04-09T06:07:21.241Z,21.4596
2023-04-09T06:08:22.958Z,21.4238
2023-04-09T06:09:24.612Z,21.4456
2023-04-09T06:10:26.537Z,21.5010
2023-04-09T06:11:28.009Z,21.5598
2023-04-09T06:12:29.911Z,21.5838
2023-04-09T06:13:31.202Z,21.5483
2023-04-09T06:14:32.882Z,21.5284
2023-04-09T06:15:34.555Z,21.5682
2023-04-09T06:16:36.130Z,21.6167
2023-04-09T06:17:37.804Z,21.6627
2023-04-09T06:18:39.611Z,21.6960
2023-04-09T06:19:41.170Z,21.6528
2023-04-09T06:20:42.911Z,21.6296
2023-04-09T06:21:44.297Z,21.6837
2023-04-09T06:22:45.987Z,21.7492
2023-04-09T06:23:47.642Z,21.7962
2023-04-09T06:24:49.279Z,21.8030
2023-04-09T06:25:50.972Z,21.7475
2023-04-09T06:26:52.607Z,21.7122
2023-04-09T06:27:54.212Z,21.7270
2023-04-09T06:28:55.877Z,21.7878
2023-04-09T06:29:57.550Z,21.8408
2023-04-09T06:30:59.300Z,21.8648
2023-04-09T06:32:00.786Z,21.8289
2023-04-09T06:33:02.572Z,21.7800
2023-04-09T06:34:04.103Z,21.8365
2023-04-09T06:35:05.826Z,21.9176
2023-04-09T06:36:08.484Z,21.9739
2023-04-09T06:37:09.021Z,21.9778
2023-04-09T06:38:11.362Z,21.9462
2023-04-09T06:39:13.168Z,21.9388
2023-04-09T06:40:14.071Z,21.9690
2023-04-09T06:41:15.930Z,22.0378
2023-04-09T06:42:17.373Z,22.0871
2023-04-09T06:43:18.964Z,22.0854
2023-04-09T06:44:20.670Z,22.0417
2023-04-09T06:45:22.247Z,22.0378
2023-04-09T06:46:24.033Z,22.0234
2023-04-09T06:47:25.621Z,22.0879
2023-04-09T06:48:27.930Z,22.1417
2023-04-09T06:49:28.893Z,22.1678
2023-04-09T06:50:30.557Z,22.1536
2023-04-09T06:51:32.541Z,22.1212
2023-04-09T06:52:33.937Z,22.0986
2023-04-09T06:53:35.519Z,22.1528
2023-04-09T06:54:37.991Z,22.2134
2023-04-09T06:55:38.885Z,22.2455
2023-04-09T06:56:40.962Z,22.2052
2023-04-09T06:57:42.143Z,22.1495
2023-04-09T06:58:43.837Z,22.1384
2023-04-09T06:59:45.486Z,22.1996
2023-04-09T07:00:47.089Z,22.2600
2023-04-09T07:01:49.385Z,22.3071
2023-04-09T07:02:50.673Z,22.2613
2023-04-09T07:03:52.625Z,22.2001
2023-04-09T07:04:53.729Z,22.1740
2023-04-09T07:05:55.432Z,22.2757
2023-04-09T07:06:58.150Z,22.3531
2023-04-09T07:07:58.703Z,22.3917
2023-04-09T07:09:00.461Z,22.3576
2023-04-09T07:10:02.019Z,22.3303
2023-04-09T07:11:03.669Z,22.3130
2023-04-09T07:12:05.386Z,22.4067
2023-04-09T07:13:07.495Z,22.4813
2023-04-09T07:14:08.625Z,22.5016
2023-04-09T07:15:10.318Z,22.4661
2023-04-09T07:16:11.943Z,22.4194
2023-04-09T07:17:13.634Z,22.4240
2023-04-09T07:18:15.265Z,22.4952
2023-04-09T07:19:16.777Z,22.5844
2023-04-09T07:20:18.566Z,22.6179
2023-04-09T07:21:20.165Z,22.5768
2023-04-09T07:22:22.128Z,22.5454
2023-04-09T07:23:23.577Z,22.5388
2023-04-09T07:24:25.301Z,22.5864
2023-04-09T07:25:26.778Z,22.6507
2023-04-09T07:26:28.509Z,22.6682
2023-04-09T07:27:30.101Z,22.6168
2023-04-09T07:28:31.757Z,22.5745
2023-04-09T07:29:33.586Z,22.6222
2023-04-09T07:30:35.013Z,22.7099
2023-04-09T07:31:36.619Z,22.7656
2023-04-09T07:32:38.444Z,22.7641
2023-04-09T07:33:39.957Z,22.7060
2023-04-09T07:34:41.597Z,22.7080
2023-04-09T07:35:43.216Z,22.7789
2023-04-09T07:36:44.954Z,22.8434
2023-04-09T07:37:47.003Z,22.8869
2023-04-09T07:38:48.551Z,22.8479
2023-04-09T07:39:49.888Z,22.7647
2023-04-09T07:40:51.902Z,22.7830
2023-04-09T07:41:53.148Z,22.8674
2023-04-09T07:42:54.834Z,22.9445
2023-04-09T07:43:56.565Z,22.9272
2023-04-09T07:44:58.250Z,22.8568
2023-04-09T07:45:59.853Z,22.8247
2023-04-09T07:47:01.557Z,22.8941
2023-04-09T07:48:03.510Z,22.9233
2023-04-09T07:49:04.943Z,22.9876
2023-04-09T07:50:06.351Z,22.9402
2023-04-09T07:51:08.934Z,22.8826
2023-04-09T07:52:09.666Z,22.8471
2023-04-09T07:53:12.004Z,22.9619
2023-04-09T07:54:13.094Z,23.0396
2023-04-09T07:55:15.154Z,23.0919
2023-04-09T07:56:16.223Z,23.0373
2023-04-09T07:57:17.869Z,22.9897
2023-04-09T07:58:19.613Z,23.0410
2023-04-09T07:59:21.217Z,23.1215
2023-04-09T08:00:22.856Z,23.1932
2023-04-09T08:01:24.508Z,23.1916
2023-04-09T08:02:26.364Z,23.1037
2023-04-09T08:03:28.115Z,23.0289
2023-04-09T08:04:29.487Z,23.1016
2023-04-09T08:05:31.142Z,23.1490
2023-04-09T08:06:32.737Z,23.1977
2023-04-09T08:07:34.482Z,23.1560
2023-04-09T08:08:36.103Z,23.0648
2023-04-09T08:09:37.761Z,23.0127
2023-04-09T08:10:39.368Z,23.1020
2023-04-09T08:11:40.984Z,23.1408
2023-04-09T08:12:42.706Z,23.1905
2023-04-09T08:13:44.622Z,23.1080
2023-04-09T08:14:45.940Z,22.9989
2023-04-09T08:15:47.635Z,22.9792
2023-04-09T08:16:49.372Z,23.0537
2023-04-09T08:17:51.497Z,23.1250
2023-04-09T08:18:52.932Z,23.1302
2023-04-09T08:19:54.586Z,23.0431
2023-04-09T08:20:55.839Z,22.9697
2023-04-09T08:21:57.567Z,22.9991
2023-04-09T08:22:59.207Z,23.0895
2023-04-09T08:24:00.833Z,23.1525
2023-04-09T08:25:03.537Z,23.1341
2023-04-09T08:26:04.073Z,23.0274
2023-04-09T08:27:05.748Z,22.9467
2023-04-09T08:28:07.410Z,23.0088
2023-04-09T08:29:09.109Z,23.0677
2023-04-09T08:30:10.730Z,23.1437
2023-04-09T08:31:12.448Z,23.1310
2023-04-09T08:32:14.045Z,23.0484
2023-04-09T08:33:15.641Z,22.9632
2023-04-09T08:34:17.584Z,23.0843
2023-04-09T08:35:19.058Z,23.1591
2023-04-09T08:36:21.593Z,23.2413
2023-04-09T08:37:22.419Z,23.2002
2023-04-09T08:38:24.094Z,23.1156
2023-04-09T08:39:25.792Z,23.1189
2023-04-09T08:40:27.581Z,23.1846
2023-04-09T08:41:28.944Z,23.2542
2023-04-09T08:42:30.545Z,23.3062
2023-04-09T08:43:52.531Z,23.2544
2023-04-09T08:44:33.963Z,23.1668
2023-04-09T08:45:35.604Z,23.2119
2023-04-09T08:46:37.147Z,23.2881
2023-04-09T08:47:38.934Z,23.3953
2023-04-09T08:48:40.586Z,23.4296
2023-04-09T08:49:43.034Z,23.3654
2023-04-09T08:50:43.767Z,23.2437
2023-04-09T08:51:45.450Z,23.2168
2023-04-09T08:52:47.132Z,23.2345
2023-04-09T08:53:48.723Z,23.2813
2023-04-09T08:54:50.447Z,23.2965
2023-04-09T08:55:53.152Z,23.2663
2023-04-09T08:56:53.812Z,23.2805
2023-04-09T08:57:56.094Z,23.4181
2023-04-09T08:58:57.139Z,23.5519
2023-04-09T08:59:59.121Z,23.6687
2023-04-09T09:01:00.488Z,23.6511
2023-04-09T09:02:02.087Z,23.5872
2023-04-09T09:03:03.824Z,23.5311
2023-04-09T09:04:05.380Z,23.6827
2023-04-09T09:05:07.163Z,23.8181
2023-04-09T09:06:08.646Z,23.9041
2023-04-09T09:07:10.376Z,23.8431
2023-04-09T09:08:12.607Z,23.6765
2023-04-09T09:09:13.576Z,23.5874
2023-04-09T09:10:15.714Z,23.6862
2023-04-09T09:11:16.933Z,23.7729
2023-04-09T09:12:18.654Z,23.8411
2023-04-09T09:13:20.266Z,23.7745
2023-04-09T09:14:21.947Z,23.6527
2023-04-09T09:15:23.714Z,23.6357
2023-04-09T09:16:25.187Z,23.7330
2023-04-09T09:17:26.947Z,23.8109
2023-04-09T09:18:28.521Z,23.8238
2023-04-09T09:19:30.656Z,23.7250
2023-04-09T09:20:32.326Z,23.6424
2023-04-09T09:21:33.591Z,23.6765
2023-04-09T09:22:35.148Z,23.7651
2023-04-09T09:23:36.880Z,23.8433
2023-04-09T09:24:38.494Z,23.8401
2023-04-09T09:25:40.128Z,23.7273
2023-04-09T09:26:41.850Z,23.6560
2023-04-09T09:27:43.402Z,23.7293
2023-04-09T09:28:45.050Z,23.8018
2023-04-09T09:29:46.714Z,23.8744
2023-04-09T09:30:49.526Z,23.8386
2023-04-09T09:31:50.079Z,23.7088
2023-04-09T09:32:51.765Z,23.6094
2023-04-09T09:33:53.308Z,23.6862
2023-04-09T09:34:54.874Z,23.7934
2023-04-09T09:35:56.730Z,23.8668
2023-04-09T09:36:58.268Z,23.8281
2023-04-09T09:37:59.954Z,23.7390
2023-04-09T09:39:01.586Z,23.7111
2023-04-09T09:40:03.180Z,23.7875
2023-04-09T09:41:04.878Z,23.8943
2023-04-09T09:42:06.482Z,23.9372
2023-04-09T09:43:08.205Z,23.8705
2023-04-09T09:44:09.701Z,23.7684
2023-04-09T09:45:11.454Z,23.7466
2023-04-09T09:46:13.231Z,23.8419
2023-04-09T09:47:14.836Z,23.9204
2023-04-09T09:48:16.501Z,23.9325
2023-04-09T09:49:18.112Z,23.8249
2023-04-09T09:50:19.693Z,23.7037
2023-04-09T09:51:21.394Z,23.7306
2023-04-09T09:52:23.084Z,23.8053
2023-04-09T09:53:24.665Z,23.8867
2023-04-09T09:54:26.365Z,23.8735
2023-04-09T09:55:28.144Z,23.7628
2023-04-09T09:56:29.792Z,23.7024
2023-04-09T09:57:31.421Z,23.7511
2023-04-09T09:58:33.094Z,23.8312
2023-04-09T09:59:34.674Z,23.8865
2023-04-09T10:00:36.359Z,23.8409
2023-04-09T10:01:38.148Z,23.7583
2023-04-09T10:02:39.699Z,23.6882
2023-04-09T10:03:41.372Z,23.7476
2023-04-09T10:04:43.068Z,23.8462
2023-04-09T10:05:44.583Z,23.8908
2023-04-09T10:06:46.354Z,23.8300
2023-04-09T10:07:47.885Z,23.7111
2023-04-09T10:08:49.710Z,23.6796
2023-04-09T10:09:51.214Z,23.7854
2023-04-09T10:10:52.991Z,23.8922
2023-04-09T10:11:54.670Z,23.9370
2023-04-09T10:12:56.476Z,23.8637
2023-04-09T10:13:57.795Z,23.7739
2023-04-09T10:14:59.510Z,23.7462
2023-04-09T10:16:01.144Z,23.8575
2023-04-09T10:17:02.856Z,23.9469
2023-04-09T10:18:04.475Z,23.9803
2023-04-09T10:19:06.075Z,23.9101
2023-04-09T10:20:07.722Z,23.8327
2023-04-09T10:21:09.369Z,23.8409
2023-04-09T10:22:11.052Z,23.9448
2023-04-09T10:23:13.215Z,24.0177
2023-04-09T10:24:14.278Z,24.0364
2023-04-09T10:25:15.984Z,23.9660
2023-04-09T10:26:17.716Z,23.8651
2023-04-09T10:27:19.390Z,23.8477
2023-04-09T10:28:20.963Z,23.9680
2023-04-09T10:29:22.650Z,24.0428
2023-04-09T10:30:24.220Z,24.0769
2023-04-09T10:31:25.908Z,23.9888
2023-04-09T10:32:28.604Z,23.9043
2023-04-09T10:33:29.245Z,23.8955
2023-04-09T10:34:30.939Z,23.9962
2023-04-09T10:35:32.475Z,24.0835
2023-04-09T10:36:34.165Z,24.1243
2023-04-09T10:37:35.873Z,24.0617
2023-04-09T10:38:37.471Z,23.9832
2023-04-09T10:39:39.161Z,23.9771
2023-04-09T10:40:40.735Z,24.0713
2023-04-09T10:41:42.442Z,24.1632
2023-04-09T10:42:44.143Z,24.1897
2023-04-09T10:43:45.751Z,24.1276
2023-04-09T10:44:47.415Z,24.0440
2023-04-09T10:45:49.061Z,24.0169
2023-04-09T10:46:50.803Z,24.1438
2023-04-09T10:47:52.842Z,24.2314
2023-04-09T10:48:54.131Z,24.2698
2023-04-09T10:49:55.708Z,24.1849
2023-04-09T10:50:57.322Z,24.1073
2023-04-09T10:51:59.000Z,24.1044
2023-04-09T10:53:00.735Z,24.2242
2023-04-09T10:54:02.298Z,24.3020
2023-04-09T10:55:03.913Z,24.3396
2023-04-09T10:56:05.562Z,24.2710
2023-04-09T10:57:07.307Z,24.1997
2023-04-09T10:58:11.296Z,24.2067
2023-04-09T10:59:10.595Z,24.3211
2023-04-09T11:00:12.541Z,24.3986
2023-04-09T11:01:13.851Z,24.4224
2023-04-09T11:02:15.564Z,24.3406
2023-04-09T11:03:17.370Z,24.2459
2023-04-09T11:04:18.648Z,24.2262
2023-04-09T11:05:20.320Z,24.3363
2023-04-09T11:06:21.984Z,24.4372
2023-04-09T11:07:23.692Z,24.4643
2023-04-09T11:08:25.313Z,24.4008
2023-04-09T11:09:26.910Z,24.3125
2023-04-09T11:10:28.578Z,24.2841
2023-04-09T11:11:30.241Z,24.4082
2023-04-09T11:12:31.878Z,24.4982
2023-04-09T11:13:33.541Z,24.5399
2023-04-09T11:14:35.180Z,24.4908
2023-04-09T11:15:36.826Z,24.4294
2023-04-09T11:16:38.664Z,24.3973
2023-04-09T11:17:40.277Z,24.4811
2023-04-09T11:18:42.172Z,24.5690
2023-04-09T11:19:43.504Z,24.6013
2023-04-09T11:20:45.078Z,24.5376
2023-04-09T11:21:46.817Z,24.4429
2023-04-09T11:22:48.419Z,24.4509
2023-04-09T11:23:50.155Z,24.5452
2023-04-09T11:24:51.770Z,24.6198
2023-04-09T11:25:53.368Z,24.6545
2023-04-09T11:26:55.092Z,24.6112
2023-04-09T11:27:56.647Z,24.5462
2023-04-09T11:28:59.145Z,24.5997
2023-04-09T11:30:00.134Z,24.6705
2023-04-09T11:31:01.794Z,24.7416
2023-04-09T11:32:03.262Z,24.7282
2023-04-09T11:33:05.129Z,24.6607
2023-04-09T11:34:06.667Z,24.5908
2023-04-09T11:35:08.243Z,24.6262
2023-04-09T11:36:09.854Z,24.6837
2023-04-09T11:37:11.546Z,24.7414
2023-04-09T11:38:14.048Z,24.7176
2023-04-09T11:39:15.145Z,24.6368
2023-04-09T11:40:16.540Z,24.6457
2023-04-09T11:41:18.188Z,24.7529
2023-04-09T11:42:19.755Z,24.8961
2023-04-09T11:43:21.459Z,24.9509
2023-04-09T11:44:23.701Z,24.8745
2023-04-09T11:45:24.722Z,24.7757
2023-04-09T11:46:27.456Z,24.7839
2023-04-09T11:47:28.045Z,24.8780
2023-04-09T11:48:29.784Z,24.9790
2023-04-09T11:49:32.245Z,25.0374
2023-04-09T11:50:33.027Z,24.9743
2023-04-09T11:51:34.749Z,24.8722
2023-04-09T11:52:36.452Z,24.8548
2023-04-09T11:53:38.073Z,24.9523
2023-04-09T11:54:39.740Z,25.0622
2023-04-09T11:55:41.378Z,25.1173
2023-04-09T11:56:43.075Z,25.0413
2023-04-09T11:57:44.681Z,24.9731
2023-04-09T11:58:46.327Z,24.9164
2023-04-09T11:59:48.129Z,25.0080
2023-04-09T12:00:49.676Z,25.1347
2023-04-09T12:01:51.515Z,25.2095
2023-04-09T12:02:53.301Z,25.1598
2023-04-09T12:03:54.675Z,25.0559
2023-04-09T12:04:56.620Z,25.0339
2023-04-09T12:05:57.764Z,25.1150
2023-04-09T12:06:59.482Z,25.2101
2023-04-09T12:08:01.067Z,25.2785
2023-04-09T12:09:02.831Z,25.2307
2023-04-09T12:10:04.560Z,25.1397
2023-04-09T12:11:06.076Z,25.0939
2023-04-09T12:12:08.680Z,25.1487
2023-04-09T12:13:09.370Z,25.2397
2023-04-09T12:14:11.033Z,25.3050
2023-04-09T12:15:12.806Z,25.2804
2023-04-09T12:16:14.577Z,25.2118
2023-04-09T12:17:15.963Z,25.1175
2023-04-09T12:18:17.693Z,25.1637
2023-04-09T12:19:19.333Z,25.2880
2023-04-09T12:20:21.209Z,25.3870
2023-04-09T12:21:22.572Z,25.3903
2023-04-09T12:22:24.226Z,25.3106
2023-04-09T12:23:25.987Z,25.2440
2023-04-09T12:24:27.571Z,25.2933
2023-04-09T12:25:29.271Z,25.4047